sensor_id;sensor_type;location;lat;lon;timestamp;P1;durP1;ratioP1;P2;durP2;ratioP2
9106;SDS011;4589;48.690;8.952;2023-08-17T00:02:16;42.57;;;17.57;;
9106;SDS011;4589;48.690;8.952;2023-08-17T00:04:42;43.57;;;17.40;;
9106;SDS011;4589;48.690;8.952;2023-08-17T00:07:08;33.97;;;15.50;;
9106;SDS011;4589;48.690;8.952;2023-08-17T00:09:34;64.80;;;19.70;;
9106;SDS011;4589;48.690;8.952;2023-08-17T00:12:00;37.60;;;17.03;;
9106;SDS011;4589;48.690;8.952;2023-08-17T00:14:25;30.40;;;15.07;;
9106;SDS011;4589;48.690;8.952;2023-08-17T00:16:51;34.77;;;18.27;;
9106;SDS011;4589;48.690;8.952;2023-08-17T00:19:17;46.13;;;18.03;;
9106;SDS011;4589;48.690;8.952;2023-08-17T00:21:44;47.00;;;18.73;;
9106;SDS011;4589;48.690;8.952;2023-08-17T00:24:10;46.73;;;17.17;;
9106;SDS011;4589;48.690;8.952;2023-08-17T00:26:37;65.83;;;18.97;;
9106;SDS011;4589;48.690;8.952;2023-08-17T00:29:03;59.83;;;20.53;;
9106;SDS011;4589;48.690;8.952;2023-08-17T00:31:29;40.80;;;17.27;;
9106;SDS011;4589;48.690;8.952;2023-08-17T00:33:55;60.13;;;18.70;;
9106;SDS011;4589;48.690;8.952;2023-08-17T00:36:21;62.50;;;21.10;;
9106;SDS011;4589;48.690;8.952;2023-08-17T00:38:47;49.70;;;19.37;;
9106;SDS011;4589;48.690;8.952;2023-08-17T00:41:13;49.33;;;18.57;;
9106;SDS011;4589;48.690;8.952;2023-08-17T00:43:39;45.63;;;19.23;;
9106;SDS011;4589;48.690;8.952;2023-08-17T00:46:05;51.87;;;20.43;;
9106;SDS011;4589;48.690;8.952;2023-08-17T00:48:31;61.67;;;20.23;;
9106;SDS011;4589;48.690;8.952;2023-08-17T00:50:57;67.80;;;20.10;;
9106;SDS011;4589;48.690;8.952;2023-08-17T00:53:23;40.93;;;17.90;;
9106;SDS011;4589;48.690;8.952;2023-08-17T00:55:53;57.63;;;19.93;;
9106;SDS011;4589;48.690;8.952;2023-08-17T00:58:20;49.53;;;17.90;;
9106;SDS011;4589;48.690;8.952;2023-08-17T01:00:46;50.17;;;20.93;;
9106;SDS011;4589;48.690;8.952;2023-08-17T01:03:12;88.40;;;23.73;;
9106;SDS011;4589;48.690;8.952;2023-08-17T01:05:38;66.47;;;22.07;;
9106;SDS011;4589;48.690;8.952;2023-08-17T01:08:04;82.03;;;24.27;;
9106;SDS011;4589;48.690;8.952;2023-08-17T01:10:37;66.43;;;21.27;;
9106;SDS011;4589;48.690;8.952;2023-08-17T01:13:15;71.83;;;21.40;;
9106;SDS011;4589;48.690;8.952;2023-08-17T01:15:46;61.53;;;22.07;;
9106;SDS011;4589;48.690;8.952;2023-08-17T01:18:21;61.70;;;22.20;;
9106;SDS011;4589;48.690;8.952;2023-08-17T01:20:52;78.03;;;23.37;;
9106;SDS011;4589;48.690;8.952;2023-08-17T01:23:18;73.20;;;22.37;;
9106;SDS011;4589;48.690;8.952;2023-08-17T01:25:44;48.03;;;19.33;;
9106;SDS011;4589;48.690;8.952;2023-08-17T01:28:10;55.70;;;18.97;;
9106;SDS011;4589;48.690;8.952;2023-08-17T01:31:19;48.20;;;18.03;;
9106;SDS011;4589;48.690;8.952;2023-08-17T01:33:39;64.50;;;18.90;;
9106;SDS011;4589;48.690;8.952;2023-08-17T01:36:11;38.07;;;14.83;;
9106;SDS011;4589;48.690;8.952;2023-08-17T01:38:37;36.83;;;15.70;;
9106;SDS011;4589;48.690;8.952;2023-08-17T01:41:05;35.60;;;15.80;;
9106;SDS011;4589;48.690;8.952;2023-08-17T01:43:32;53.97;;;18.33;;
9106;SDS011;4589;48.690;8.952;2023-08-17T01:45:59;40.87;;;15.43;;
9106;SDS011;4589;48.690;8.952;2023-08-17T01:48:25;32.13;;;15.73;;
9106;SDS011;4589;48.690;8.952;2023-08-17T01:50:51;43.70;;;17.63;;
9106;SDS011;4589;48.690;8.952;2023-08-17T01:53:17;45.20;;;18.10;;
9106;SDS011;4589;48.690;8.952;2023-08-17T01:55:43;57.90;;;18.43;;
9106;SDS011;4589;48.690;8.952;2023-08-17T01:58:09;65.90;;;20.60;;
9106;SDS011;4589;48.690;8.952;2023-08-17T02:00:35;65.93;;;21.20;;
9106;SDS011;4589;48.690;8.952;2023-08-17T02:03:01;61.80;;;19.97;;
9106;SDS011;4589;48.690;8.952;2023-08-17T02:05:27;82.87;;;23.53;;
9106;SDS011;4589;48.690;8.952;2023-08-17T02:07:54;73.00;;;21.93;;
9106;SDS011;4589;48.690;8.952;2023-08-17T02:10:20;41.53;;;18.20;;
9106;SDS011;4589;48.690;8.952;2023-08-17T02:12:46;56.43;;;19.90;;
9106;SDS011;4589;48.690;8.952;2023-08-17T02:15:12;60.57;;;20.00;;
9106;SDS011;4589;48.690;8.952;2023-08-17T02:17:38;79.97;;;22.57;;
9106;SDS011;4589;48.690;8.952;2023-08-17T02:20:04;69.33;;;21.37;;
9106;SDS011;4589;48.690;8.952;2023-08-17T02:22:30;67.93;;;22.00;;
9106;SDS011;4589;48.690;8.952;2023-08-17T02:24:56;63.40;;;22.37;;
9106;SDS011;4589;48.690;8.952;2023-08-17T02:27:22;61.33;;;19.50;;
9106;SDS011;4589;48.690;8.952;2023-08-17T02:29:48;54.47;;;20.00;;
9106;SDS011;4589;48.690;8.952;2023-08-17T02:32:14;72.10;;;19.83;;
9106;SDS011;4589;48.690;8.952;2023-08-17T02:34:40;44.00;;;17.23;;
9106;SDS011;4589;48.690;8.952;2023-08-17T02:37:06;53.77;;;18.60;;
9106;SDS011;4589;48.690;8.952;2023-08-17T02:39:32;42.17;;;17.23;;
9106;SDS011;4589;48.690;8.952;2023-08-17T02:41:58;48.10;;;17.10;;
9106;SDS011;4589;48.690;8.952;2023-08-17T02:44:24;57.03;;;19.67;;
9106;SDS011;4589;48.690;8.952;2023-08-17T02:46:50;65.73;;;21.07;;
9106;SDS011;4589;48.690;8.952;2023-08-17T02:49:16;50.53;;;18.30;;
9106;SDS011;4589;48.690;8.952;2023-08-17T02:51:42;47.57;;;17.90;;
9106;SDS011;4589;48.690;8.952;2023-08-17T02:54:08;63.67;;;21.03;;
9106;SDS011;4589;48.690;8.952;2023-08-17T02:56:34;62.03;;;20.17;;
9106;SDS011;4589;48.690;8.952;2023-08-17T02:59:00;66.00;;;20.60;;
9106;SDS011;4589;48.690;8.952;2023-08-17T03:01:26;62.70;;;21.67;;
9106;SDS011;4589;48.690;8.952;2023-08-17T03:03:52;56.60;;;18.90;;
9106;SDS011;4589;48.690;8.952;2023-08-17T03:06:18;63.57;;;19.50;;
9106;SDS011;4589;48.690;8.952;2023-08-17T03:08:43;65.60;;;21.03;;
9106;SDS011;4589;48.690;8.952;2023-08-17T03:11:09;65.20;;;20.90;;
9106;SDS011;4589;48.690;8.952;2023-08-17T03:13:36;58.40;;;18.00;;
9106;SDS011;4589;48.690;8.952;2023-08-17T03:16:02;75.03;;;22.60;;
9106;SDS011;4589;48.690;8.952;2023-08-17T03:18:28;77.27;;;20.80;;
9106;SDS011;4589;48.690;8.952;2023-08-17T03:20:54;63.77;;;19.60;;
9106;SDS011;4589;48.690;8.952;2023-08-17T03:23:19;60.43;;;19.90;;
9106;SDS011;4589;48.690;8.952;2023-08-17T03:25:46;72.17;;;21.20;;
9106;SDS011;4589;48.690;8.952;2023-08-17T03:28:11;72.73;;;21.20;;
9106;SDS011;4589;48.690;8.952;2023-08-17T03:30:37;76.00;;;21.50;;
9106;SDS011;4589;48.690;8.952;2023-08-17T03:33:03;110.17;;;25.57;;
9106;SDS011;4589;48.690;8.952;2023-08-17T03:35:29;81.20;;;21.17;;
9106;SDS011;4589;48.690;8.952;2023-08-17T03:37:55;108.43;;;22.63;;
9106;SDS011;4589;48.690;8.952;2023-08-17T03:40:21;114.63;;;24.67;;
9106;SDS011;4589;48.690;8.952;2023-08-17T03:42:47;127.43;;;24.23;;
9106;SDS011;4589;48.690;8.952;2023-08-17T03:45:13;126.40;;;26.87;;
9106;SDS011;4589;48.690;8.952;2023-08-17T03:47:39;116.57;;;22.23;;
9106;SDS011;4589;48.690;8.952;2023-08-17T03:50:05;167.97;;;25.40;;
9106;SDS011;4589;48.690;8.952;2023-08-17T03:52:31;137.90;;;23.97;;
9106;SDS011;4589;48.690;8.952;2023-08-17T03:54:57;143.73;;;28.63;;
9106;SDS011;4589;48.690;8.952;2023-08-17T03:57:23;160.57;;;23.33;;
9106;SDS011;4589;48.690;8.952;2023-08-17T03:59:49;99.97;;;19.07;;
9106;SDS011;4589;48.690;8.952;2023-08-17T04:02:15;138.30;;;24.03;;
9106;SDS011;4589;48.690;8.952;2023-08-17T04:04:41;149.70;;;24.43;;
9106;SDS011;4589;48.690;8.952;2023-08-17T04:07:07;97.10;;;19.30;;
9106;SDS011;4589;48.690;8.952;2023-08-17T04:09:33;108.97;;;20.30;;
9106;SDS011;4589;48.690;8.952;2023-08-17T04:11:59;55.23;;;15.63;;
9106;SDS011;4589;48.690;8.952;2023-08-17T04:14:25;106.17;;;20.67;;
9106;SDS011;4589;48.690;8.952;2023-08-17T04:16:51;72.43;;;17.80;;
9106;SDS011;4589;48.690;8.952;2023-08-17T04:19:17;93.37;;;19.63;;
9106;SDS011;4589;48.690;8.952;2023-08-17T04:21:43;88.53;;;16.90;;
9106;SDS011;4589;48.690;8.952;2023-08-17T04:24:09;78.43;;;16.37;;
9106;SDS011;4589;48.690;8.952;2023-08-17T04:26:35;102.67;;;20.90;;
9106;SDS011;4589;48.690;8.952;2023-08-17T04:29:01;81.43;;;17.17;;
9106;SDS011;4589;48.690;8.952;2023-08-17T04:31:27;110.50;;;18.10;;
9106;SDS011;4589;48.690;8.952;2023-08-17T04:33:53;90.27;;;15.60;;
9106;SDS011;4589;48.690;8.952;2023-08-17T04:36:19;108.67;;;20.10;;
9106;SDS011;4589;48.690;8.952;2023-08-17T04:38:45;99.93;;;18.53;;
9106;SDS011;4589;48.690;8.952;2023-08-17T04:41:11;98.00;;;19.83;;
9106;SDS011;4589;48.690;8.952;2023-08-17T04:43:37;122.23;;;19.70;;
9106;SDS011;4589;48.690;8.952;2023-08-17T04:46:03;85.63;;;16.90;;
9106;SDS011;4589;48.690;8.952;2023-08-17T04:48:29;96.07;;;18.63;;
9106;SDS011;4589;48.690;8.952;2023-08-17T04:50:55;97.93;;;19.53;;
9106;SDS011;4589;48.690;8.952;2023-08-17T04:53:21;90.90;;;19.90;;
9106;SDS011;4589;48.690;8.952;2023-08-17T04:55:47;88.70;;;17.40;;
9106;SDS011;4589;48.690;8.952;2023-08-17T04:58:13;95.33;;;18.20;;
9106;SDS011;4589;48.690;8.952;2023-08-17T05:00:39;76.33;;;19.33;;
9106;SDS011;4589;48.690;8.952;2023-08-17T05:03:06;122.30;;;21.63;;
9106;SDS011;4589;48.690;8.952;2023-08-17T05:05:32;168.03;;;25.17;;
9106;SDS011;4589;48.690;8.952;2023-08-17T05:08:00;101.07;;;18.80;;
9106;SDS011;4589;48.690;8.952;2023-08-17T05:10:26;62.43;;;16.63;;
9106;SDS011;4589;48.690;8.952;2023-08-17T05:12:52;77.47;;;17.00;;
9106;SDS011;4589;48.690;8.952;2023-08-17T05:15:18;104.07;;;20.67;;
9106;SDS011;4589;48.690;8.952;2023-08-17T05:17:44;88.90;;;20.17;;
9106;SDS011;4589;48.690;8.952;2023-08-17T05:20:10;86.47;;;19.97;;
9106;SDS011;4589;48.690;8.952;2023-08-17T05:22:37;79.90;;;19.53;;
9106;SDS011;4589;48.690;8.952;2023-08-17T05:25:03;82.73;;;17.90;;
9106;SDS011;4589;48.690;8.952;2023-08-17T05:27:30;93.07;;;19.07;;
9106;SDS011;4589;48.690;8.952;2023-08-17T05:29:56;70.23;;;16.23;;
9106;SDS011;4589;48.690;8.952;2023-08-17T05:32:22;79.03;;;19.47;;
9106;SDS011;4589;48.690;8.952;2023-08-17T05:34:48;51.83;;;17.10;;
9106;SDS011;4589;48.690;8.952;2023-08-17T05:37:14;86.43;;;18.27;;
9106;SDS011;4589;48.690;8.952;2023-08-17T05:39:40;98.03;;;20.47;;
9106;SDS011;4589;48.690;8.952;2023-08-17T05:42:06;105.33;;;20.17;;
9106;SDS011;4589;48.690;8.952;2023-08-17T05:44:32;83.67;;;17.80;;
9106;SDS011;4589;48.690;8.952;2023-08-17T05:46:58;60.97;;;16.27;;
9106;SDS011;4589;48.690;8.952;2023-08-17T05:49:24;75.37;;;16.90;;
9106;SDS011;4589;48.690;8.952;2023-08-17T05:51:50;54.07;;;15.57;;
9106;SDS011;4589;48.690;8.952;2023-08-17T05:54:16;77.13;;;17.77;;
9106;SDS011;4589;48.690;8.952;2023-08-17T05:56:42;120.60;;;22.20;;
9106;SDS011;4589;48.690;8.952;2023-08-17T05:59:10;114.63;;;21.07;;
9106;SDS011;4589;48.690;8.952;2023-08-17T06:01:35;71.23;;;18.77;;
9106;SDS011;4589;48.690;8.952;2023-08-17T06:04:01;152.40;;;26.00;;
9106;SDS011;4589;48.690;8.952;2023-08-17T06:06:27;71.47;;;17.87;;
9106;SDS011;4589;48.690;8.952;2023-08-17T06:08:54;81.17;;;18.50;;
9106;SDS011;4589;48.690;8.952;2023-08-17T06:11:20;74.53;;;17.50;;
9106;SDS011;4589;48.690;8.952;2023-08-17T06:13:46;56.10;;;16.67;;
9106;SDS011;4589;48.690;8.952;2023-08-17T06:16:12;69.03;;;17.70;;
9106;SDS011;4589;48.690;8.952;2023-08-17T06:18:38;72.97;;;18.80;;
9106;SDS011;4589;48.690;8.952;2023-08-17T06:21:04;73.70;;;18.20;;
9106;SDS011;4589;48.690;8.952;2023-08-17T06:23:30;85.20;;;21.37;;
9106;SDS011;4589;48.690;8.952;2023-08-17T06:25:56;82.47;;;17.50;;
9106;SDS011;4589;48.690;8.952;2023-08-17T06:28:23;64.87;;;18.50;;
9106;SDS011;4589;48.690;8.952;2023-08-17T06:30:53;93.57;;;20.63;;
9106;SDS011;4589;48.690;8.952;2023-08-17T06:33:19;61.50;;;16.67;;
9106;SDS011;4589;48.690;8.952;2023-08-17T06:35:45;60.73;;;16.23;;
9106;SDS011;4589;48.690;8.952;2023-08-17T06:38:11;65.50;;;18.13;;
9106;SDS011;4589;48.690;8.952;2023-08-17T06:40:37;86.63;;;19.17;;
9106;SDS011;4589;48.690;8.952;2023-08-17T06:43:03;61.23;;;16.70;;
9106;SDS011;4589;48.690;8.952;2023-08-17T06:45:31;72.03;;;17.73;;
9106;SDS011;4589;48.690;8.952;2023-08-17T06:47:57;78.50;;;18.33;;
9106;SDS011;4589;48.690;8.952;2023-08-17T06:50:23;75.53;;;17.23;;
9106;SDS011;4589;48.690;8.952;2023-08-17T06:52:49;123.47;;;22.53;;
9106;SDS011;4589;48.690;8.952;2023-08-17T06:55:15;474.73;;;54.17;;
9106;SDS011;4589;48.690;8.952;2023-08-17T06:57:41;63.57;;;18.13;;
9106;SDS011;4589;48.690;8.952;2023-08-17T07:00:08;56.87;;;16.80;;
9106;SDS011;4589;48.690;8.952;2023-08-17T07:02:36;70.23;;;18.67;;
9106;SDS011;4589;48.690;8.952;2023-08-17T07:05:02;83.47;;;21.07;;
9106;SDS011;4589;48.690;8.952;2023-08-17T07:07:29;80.60;;;19.00;;
9106;SDS011;4589;48.690;8.952;2023-08-17T07:09:56;89.83;;;20.73;;
9106;SDS011;4589;48.690;8.952;2023-08-17T07:12:22;144.50;;;22.57;;
9106;SDS011;4589;48.690;8.952;2023-08-17T07:14:49;86.03;;;19.90;;
9106;SDS011;4589;48.690;8.952;2023-08-17T07:17:15;94.43;;;20.73;;
9106;SDS011;4589;48.690;8.952;2023-08-17T07:19:41;66.60;;;18.50;;
9106;SDS011;4589;48.690;8.952;2023-08-17T07:22:07;76.47;;;19.53;;
9106;SDS011;4589;48.690;8.952;2023-08-17T07:24:33;77.27;;;19.90;;
9106;SDS011;4589;48.690;8.952;2023-08-17T07:26:59;60.17;;;19.00;;
9106;SDS011;4589;48.690;8.952;2023-08-17T07:29:25;61.27;;;19.10;;
9106;SDS011;4589;48.690;8.952;2023-08-17T07:31:51;48.97;;;18.10;;
9106;SDS011;4589;48.690;8.952;2023-08-17T07:34:18;50.33;;;16.97;;
9106;SDS011;4589;48.690;8.952;2023-08-17T07:36:44;43.63;;;18.40;;
9106;SDS011;4589;48.690;8.952;2023-08-17T07:39:10;50.87;;;19.40;;
9106;SDS011;4589;48.690;8.952;2023-08-17T07:41:36;51.63;;;19.80;;
9106;SDS011;4589;48.690;8.952;2023-08-17T07:44:02;53.93;;;19.30;;
9106;SDS011;4589;48.690;8.952;2023-08-17T07:46:28;50.63;;;17.90;;
9106;SDS011;4589;48.690;8.952;2023-08-17T07:48:54;44.90;;;17.17;;
9106;SDS011;4589;48.690;8.952;2023-08-17T07:51:20;30.27;;;16.27;;
9106;SDS011;4589;48.690;8.952;2023-08-17T07:53:46;39.67;;;18.20;;
9106;SDS011;4589;48.690;8.952;2023-08-17T07:56:12;35.97;;;16.57;;
9106;SDS011;4589;48.690;8.952;2023-08-17T07:58:38;29.63;;;14.97;;
9106;SDS011;4589;48.690;8.952;2023-08-17T08:01:04;37.00;;;16.70;;
9106;SDS011;4589;48.690;8.952;2023-08-17T08:03:30;38.13;;;16.30;;
9106;SDS011;4589;48.690;8.952;2023-08-17T08:05:57;24.30;;;14.50;;
9106;SDS011;4589;48.690;8.952;2023-08-17T08:08:23;24.20;;;16.90;;
9106;SDS011;4589;48.690;8.952;2023-08-17T08:10:49;24.03;;;15.40;;
9106;SDS011;4589;48.690;8.952;2023-08-17T08:13:14;27.00;;;16.30;;
9106;SDS011;4589;48.690;8.952;2023-08-17T08:15:40;22.17;;;14.27;;
9106;SDS011;4589;48.690;8.952;2023-08-17T08:18:06;22.70;;;15.40;;
9106;SDS011;4589;48.690;8.952;2023-08-17T08:20:32;24.90;;;14.87;;
9106;SDS011;4589;48.690;8.952;2023-08-17T08:22:58;27.47;;;14.50;;
9106;SDS011;4589;48.690;8.952;2023-08-17T08:25:24;24.00;;;15.17;;
9106;SDS011;4589;48.690;8.952;2023-08-17T08:27:50;22.73;;;15.50;;
9106;SDS011;4589;48.690;8.952;2023-08-17T08:30:16;16.57;;;14.07;;
9106;SDS011;4589;48.690;8.952;2023-08-17T08:32:43;16.00;;;12.30;;
9106;SDS011;4589;48.690;8.952;2023-08-17T08:35:09;17.50;;;12.77;;
9106;SDS011;4589;48.690;8.952;2023-08-17T08:37:35;14.03;;;11.60;;
9106;SDS011;4589;48.690;8.952;2023-08-17T08:40:01;254.73;;;25.53;;
9106;SDS011;4589;48.690;8.952;2023-08-17T08:42:27;11.40;;;10.13;;
9106;SDS011;4589;48.690;8.952;2023-08-17T08:44:53;12.13;;;9.80;;
9106;SDS011;4589;48.690;8.952;2023-08-17T08:47:19;12.80;;;11.60;;
9106;SDS011;4589;48.690;8.952;2023-08-17T08:49:50;11.93;;;10.70;;
9106;SDS011;4589;48.690;8.952;2023-08-17T08:52:23;11.50;;;10.37;;
9106;SDS011;4589;48.690;8.952;2023-08-17T08:54:49;10.93;;;9.83;;
9106;SDS011;4589;48.690;8.952;2023-08-17T08:57:16;9.47;;;8.63;;
9106;SDS011;4589;48.690;8.952;2023-08-17T08:59:44;81.63;;;22.13;;
9106;SDS011;4589;48.690;8.952;2023-08-17T09:02:14;9.33;;;8.43;;
9106;SDS011;4589;48.690;8.952;2023-08-17T09:04:44;11.73;;;9.30;;
9106;SDS011;4589;48.690;8.952;2023-08-17T09:07:11;10.50;;;8.93;;
9106;SDS011;4589;48.690;8.952;2023-08-17T09:09:39;56.13;;;13.00;;
9106;SDS011;4589;48.690;8.952;2023-08-17T09:12:06;8.00;;;7.30;;
9106;SDS011;4589;48.690;8.952;2023-08-17T09:14:34;8.90;;;8.10;;
9106;SDS011;4589;48.690;8.952;2023-08-17T09:17:00;12.53;;;9.03;;
9106;SDS011;4589;48.690;8.952;2023-08-17T09:19:26;7.80;;;7.20;;
9106;SDS011;4589;48.690;8.952;2023-08-17T09:21:53;10.03;;;7.87;;
9106;SDS011;4589;48.690;8.952;2023-08-17T09:24:19;8.00;;;7.30;;
9106;SDS011;4589;48.690;8.952;2023-08-17T09:26:44;7.77;;;6.97;;
9106;SDS011;4589;48.690;8.952;2023-08-17T09:29:20;7.10;;;6.40;;
9106;SDS011;4589;48.690;8.952;2023-08-17T09:31:46;7.73;;;7.03;;
9106;SDS011;4589;48.690;8.952;2023-08-17T09:34:14;7.43;;;6.83;;
9106;SDS011;4589;48.690;8.952;2023-08-17T09:36:41;7.60;;;6.00;;
9106;SDS011;4589;48.690;8.952;2023-08-17T09:39:07;8.37;;;7.63;;
9106;SDS011;4589;48.690;8.952;2023-08-17T09:41:40;8.57;;;6.67;;
9106;SDS011;4589;48.690;8.952;2023-08-17T09:44:06;8.57;;;7.10;;
9106;SDS011;4589;48.690;8.952;2023-08-17T09:46:32;8.33;;;6.80;;
9106;SDS011;4589;48.690;8.952;2023-08-17T09:48:58;8.40;;;7.60;;
9106;SDS011;4589;48.690;8.952;2023-08-17T09:51:24;7.00;;;6.40;;
9106;SDS011;4589;48.690;8.952;2023-08-17T09:53:53;7.43;;;6.83;;
9106;SDS011;4589;48.690;8.952;2023-08-17T09:56:21;6.93;;;6.20;;
9106;SDS011;4589;48.690;8.952;2023-08-17T09:58:48;6.63;;;6.13;;
9106;SDS011;4589;48.690;8.952;2023-08-17T10:01:14;6.87;;;6.17;;
9106;SDS011;4589;48.690;8.952;2023-08-17T10:03:42;6.90;;;6.30;;
9106;SDS011;4589;48.690;8.952;2023-08-17T10:06:12;5.90;;;5.50;;
9106;SDS011;4589;48.690;8.952;2023-08-17T10:08:45;7.67;;;6.27;;
9106;SDS011;4589;48.690;8.952;2023-08-17T10:11:16;7.77;;;7.00;;
9106;SDS011;4589;48.690;8.952;2023-08-17T10:16:45;6.70;;;6.10;;
9106;SDS011;4589;48.690;8.952;2023-08-17T10:19:13;7.27;;;6.70;;
9106;SDS011;4589;48.690;8.952;2023-08-17T10:24:47;7.10;;;6.50;;
9106;SDS011;4589;48.690;8.952;2023-08-17T10:27:13;6.10;;;5.60;;
9106;SDS011;4589;48.690;8.952;2023-08-17T10:29:39;6.57;;;5.97;;
9106;SDS011;4589;48.690;8.952;2023-08-17T10:32:06;6.50;;;5.70;;
9106;SDS011;4589;48.690;8.952;2023-08-17T10:34:33;7.00;;;6.40;;
9106;SDS011;4589;48.690;8.952;2023-08-17T10:37:00;8.20;;;6.17;;
9106;SDS011;4589;48.690;8.952;2023-08-17T10:39:26;6.57;;;5.97;;
9106;SDS011;4589;48.690;8.952;2023-08-17T10:41:54;9.70;;;6.07;;
9106;SDS011;4589;48.690;8.952;2023-08-17T10:44:39;5.73;;;5.23;;
9106;SDS011;4589;48.690;8.952;2023-08-17T10:49:47;5.40;;;5.00;;
9106;SDS011;4589;48.690;8.952;2023-08-17T10:52:14;5.43;;;4.90;;
9106;SDS011;4589;48.690;8.952;2023-08-17T10:54:41;5.73;;;5.23;;
9106;SDS011;4589;48.690;8.952;2023-08-17T11:02:44;5.30;;;4.90;;
9106;SDS011;4589;48.690;8.952;2023-08-17T11:08:09;4.83;;;4.43;;
9106;SDS011;4589;48.690;8.952;2023-08-17T11:10:39;4.67;;;4.27;;
9106;SDS011;4589;48.690;8.952;2023-08-17T11:13:05;5.30;;;4.80;;
9106;SDS011;4589;48.690;8.952;2023-08-17T11:18:07;5.00;;;4.70;;
9106;SDS011;4589;48.690;8.952;2023-08-17T11:20:33;6.43;;;4.77;;
9106;SDS011;4589;48.690;8.952;2023-08-17T11:23:00;6.17;;;5.27;;
9106;SDS011;4589;48.690;8.952;2023-08-17T11:27:53;4.67;;;4.27;;
9106;SDS011;4589;48.690;8.952;2023-08-17T11:30:22;4.53;;;3.40;;
9106;SDS011;4589;48.690;8.952;2023-08-17T11:32:52;4.70;;;4.37;;
9106;SDS011;4589;48.690;8.952;2023-08-17T11:35:18;8.77;;;4.40;;
9106;SDS011;4589;48.690;8.952;2023-08-17T11:37:45;6.33;;;5.73;;
9106;SDS011;4589;48.690;8.952;2023-08-17T11:40:11;5.17;;;4.77;;
9106;SDS011;4589;48.690;8.952;2023-08-17T11:42:37;5.00;;;4.63;;
9106;SDS011;4589;48.690;8.952;2023-08-17T11:45:04;7.10;;;5.47;;
9106;SDS011;4589;48.690;8.952;2023-08-17T11:47:30;4.83;;;4.43;;
9106;SDS011;4589;48.690;8.952;2023-08-17T11:50:00;5.37;;;4.97;;
9106;SDS011;4589;48.690;8.952;2023-08-17T11:52:30;5.67;;;4.40;;
9106;SDS011;4589;48.690;8.952;2023-08-17T11:55:01;4.73;;;4.43;;
9106;SDS011;4589;48.690;8.952;2023-08-17T11:57:27;5.87;;;5.33;;
9106;SDS011;4589;48.690;8.952;2023-08-17T11:59:55;6.10;;;4.73;;
9106;SDS011;4589;48.690;8.952;2023-08-17T12:02:22;5.47;;;4.17;;
9106;SDS011;4589;48.690;8.952;2023-08-17T12:04:49;5.20;;;4.80;;
9106;SDS011;4589;48.690;8.952;2023-08-17T12:07:15;5.53;;;4.97;;
9106;SDS011;4589;48.690;8.952;2023-08-17T12:09:42;5.83;;;5.37;;
9106;SDS011;4589;48.690;8.952;2023-08-17T12:12:09;6.00;;;5.50;;
9106;SDS011;4589;48.690;8.952;2023-08-17T12:14:35;10.10;;;5.80;;
9106;SDS011;4589;48.690;8.952;2023-08-17T12:17:01;7.43;;;5.30;;
9106;SDS011;4589;48.690;8.952;2023-08-17T12:19:29;6.40;;;5.40;;
9106;SDS011;4589;48.690;8.952;2023-08-17T12:21:54;5.87;;;5.40;;
9106;SDS011;4589;48.690;8.952;2023-08-17T12:24:23;6.10;;;5.50;;
9106;SDS011;4589;48.690;8.952;2023-08-17T12:26:49;6.50;;;5.63;;
9106;SDS011;4589;48.690;8.952;2023-08-17T12:29:15;10.17;;;6.23;;
9106;SDS011;4589;48.690;8.952;2023-08-17T12:31:41;8.33;;;6.80;;
9106;SDS011;4589;48.690;8.952;2023-08-17T12:34:07;7.57;;;6.47;;
9106;SDS011;4589;48.690;8.952;2023-08-17T12:36:33;7.73;;;7.10;;
9106;SDS011;4589;48.690;8.952;2023-08-17T12:39:00;11.00;;;7.37;;
9106;SDS011;4589;48.690;8.952;2023-08-17T12:41:26;10.40;;;7.10;;
9106;SDS011;4589;48.690;8.952;2023-08-17T12:43:52;8.07;;;7.27;;
9106;SDS011;4589;48.690;8.952;2023-08-17T12:46:19;8.87;;;7.70;;
9106;SDS011;4589;48.690;8.952;2023-08-17T12:48:45;14.63;;;9.93;;
9106;SDS011;4589;48.690;8.952;2023-08-17T12:51:11;17.20;;;11.10;;
9106;SDS011;4589;48.690;8.952;2023-08-17T12:53:37;11.80;;;7.57;;
9106;SDS011;4589;48.690;8.952;2023-08-17T12:56:03;11.27;;;7.70;;
9106;SDS011;4589;48.690;8.952;2023-08-17T12:58:29;9.77;;;8.20;;
9106;SDS011;4589;48.690;8.952;2023-08-17T13:00:55;9.17;;;7.43;;
9106;SDS011;4589;48.690;8.952;2023-08-17T13:03:21;9.10;;;6.30;;
9106;SDS011;4589;48.690;8.952;2023-08-17T13:05:47;6.60;;;5.97;;
9106;SDS011;4589;48.690;8.952;2023-08-17T13:08:13;8.57;;;6.67;;
9106;SDS011;4589;48.690;8.952;2023-08-17T13:10:40;7.63;;;6.53;;
9106;SDS011;4589;48.690;8.952;2023-08-17T13:13:06;8.10;;;7.00;;
9106;SDS011;4589;48.690;8.952;2023-08-17T13:15:32;10.00;;;7.17;;
9106;SDS011;4589;48.690;8.952;2023-08-17T13:17:58;12.47;;;8.10;;
9106;SDS011;4589;48.690;8.952;2023-08-17T13:20:25;11.57;;;7.80;;
9106;SDS011;4589;48.690;8.952;2023-08-17T13:22:51;8.30;;;7.47;;
9106;SDS011;4589;48.690;8.952;2023-08-17T13:25:17;9.20;;;7.73;;
9106;SDS011;4589;48.690;8.952;2023-08-17T13:27:43;11.73;;;7.87;;
9106;SDS011;4589;48.690;8.952;2023-08-17T13:30:09;9.90;;;8.90;;
9106;SDS011;4589;48.690;8.952;2023-08-17T13:32:35;14.00;;;8.70;;
9106;SDS011;4589;48.690;8.952;2023-08-17T13:35:02;12.07;;;8.70;;
9106;SDS011;4589;48.690;8.952;2023-08-17T13:37:28;13.40;;;8.53;;
9106;SDS011;4589;48.690;8.952;2023-08-17T13:39:54;12.63;;;8.17;;
9106;SDS011;4589;48.690;8.952;2023-08-17T13:42:20;11.97;;;8.90;;
9106;SDS011;4589;48.690;8.952;2023-08-17T13:44:46;10.87;;;8.00;;
9106;SDS011;4589;48.690;8.952;2023-08-17T13:47:12;11.90;;;8.30;;
9106;SDS011;4589;48.690;8.952;2023-08-17T13:49:38;14.23;;;9.17;;
9106;SDS011;4589;48.690;8.952;2023-08-17T13:52:04;9.80;;;8.80;;
9106;SDS011;4589;48.690;8.952;2023-08-17T13:54:30;14.93;;;10.40;;
9106;SDS011;4589;48.690;8.952;2023-08-17T13:56:56;14.37;;;11.57;;
9106;SDS011;4589;48.690;8.952;2023-08-17T13:59:22;14.13;;;11.00;;
9106;SDS011;4589;48.690;8.952;2023-08-17T14:01:48;18.17;;;12.23;;
9106;SDS011;4589;48.690;8.952;2023-08-17T14:04:14;18.30;;;14.70;;
9106;SDS011;4589;48.690;8.952;2023-08-17T14:06:42;20.10;;;14.87;;
9106;SDS011;4589;48.690;8.952;2023-08-17T14:09:08;18.73;;;16.73;;
9106;SDS011;4589;48.690;8.952;2023-08-17T14:11:34;20.33;;;18.17;;
9106;SDS011;4589;48.690;8.952;2023-08-17T14:14:00;22.70;;;18.03;;
9106;SDS011;4589;48.690;8.952;2023-08-17T14:16:26;21.63;;;18.50;;
9106;SDS011;4589;48.690;8.952;2023-08-17T14:18:53;21.57;;;17.93;;
9106;SDS011;4589;48.690;8.952;2023-08-17T14:21:19;24.20;;;18.27;;
9106;SDS011;4589;48.690;8.952;2023-08-17T14:23:45;24.60;;;19.13;;
9106;SDS011;4589;48.690;8.952;2023-08-17T14:26:11;20.53;;;18.33;;
9106;SDS011;4589;48.690;8.952;2023-08-17T14:28:37;19.27;;;17.20;;
9106;SDS011;4589;48.690;8.952;2023-08-17T14:31:03;21.73;;;19.50;;
9106;SDS011;4589;48.690;8.952;2023-08-17T14:33:29;27.00;;;19.63;;
9106;SDS011;4589;48.690;8.952;2023-08-17T14:35:55;21.07;;;18.83;;
9106;SDS011;4589;48.690;8.952;2023-08-17T14:38:21;18.90;;;17.00;;
9106;SDS011;4589;48.690;8.952;2023-08-17T14:40:47;18.63;;;16.57;;
9106;SDS011;4589;48.690;8.952;2023-08-17T14:43:14;18.70;;;16.77;;
9106;SDS011;4589;48.690;8.952;2023-08-17T14:45:40;16.60;;;15.00;;
9106;SDS011;4589;48.690;8.952;2023-08-17T14:48:06;18.83;;;16.77;;
9106;SDS011;4589;48.690;8.952;2023-08-17T14:50:33;18.03;;;16.10;;
9106;SDS011;4589;48.690;8.952;2023-08-17T14:52:59;16.87;;;15.07;;
9106;SDS011;4589;48.690;8.952;2023-08-17T14:55:30;16.00;;;14.40;;
9106;SDS011;4589;48.690;8.952;2023-08-17T14:57:56;19.00;;;14.60;;
9106;SDS011;4589;48.690;8.952;2023-08-17T15:00:23;16.77;;;14.70;;
9106;SDS011;4589;48.690;8.952;2023-08-17T15:02:49;17.50;;;15.70;;
9106;SDS011;4589;48.690;8.952;2023-08-17T15:05:15;15.37;;;13.90;;
9106;SDS011;4589;48.690;8.952;2023-08-17T15:07:41;15.67;;;14.13;;
9106;SDS011;4589;48.690;8.952;2023-08-17T15:10:07;16.23;;;14.63;;
9106;SDS011;4589;48.690;8.952;2023-08-17T15:12:33;13.77;;;12.53;;